createdAt,value
2024-01-21T00:00:14.335Z,2.58
2024-01-21T00:02:44.802Z,2.85
2024-01-21T00:05:15.540Z,3.30
2024-01-21T00:07:45.394Z,2.45
2024-01-21T00:10:16.193Z,2.85
2024-01-21T00:12:46.588Z,2.08
2024-01-21T00:15:17.587Z,2.10
2024-01-21T00:17:47.534Z,2.40
2024-01-21T00:20:18.733Z,2.63
2024-01-21T00:22:48.754Z,1.88
2024-01-21T00:25:18.601Z,2.00
2024-01-21T00:27:48.927Z,2.10
2024-01-21T00:30:18.974Z,2.08
2024-01-21T00:32:49.323Z,2.20
2024-01-21T00:35:19.416Z,2.50
2024-01-21T00:37:49.946Z,2.90
2024-01-21T00:40:19.923Z,2.17
2024-01-21T00:42:50.296Z,2.15
2024-01-21T00:45:20.359Z,2.15
2024-01-21T00:47:51.834Z,2.20
2024-01-21T00:50:21.975Z,2.30
2024-01-21T00:52:52.261Z,2.00
2024-01-21T00:55:22.240Z,1.75
2024-01-21T00:57:55.362Z,2.45
2024-01-21T01:00:28.087Z,2.30
2024-01-21T01:02:58.390Z,2.80
2024-01-21T01:05:28.535Z,2.10
2024-01-21T01:07:58.773Z,2.03
2024-01-21T01:10:28.587Z,2.03
2024-01-21T01:13:00.563Z,2.33
2024-01-21T01:15:30.921Z,2.85
2024-01-21T01:18:01.212Z,2.95
2024-01-21T01:20:31.244Z,2.65
2024-01-21T01:23:01.458Z,2.80
2024-01-21T01:25:31.485Z,2.20
2024-01-21T01:28:01.895Z,2.45
2024-01-21T01:30:32.146Z,2.28
2024-01-21T01:33:02.520Z,2.25
2024-01-21T01:35:32.537Z,2.30
2024-01-21T01:38:02.793Z,2.30
2024-01-21T01:40:32.788Z,2.25
2024-01-21T01:43:04.537Z,2.80
2024-01-21T01:45:34.617Z,3.28
2024-01-21T01:48:06.129Z,2.50
2024-01-21T01:50:36.286Z,2.90
2024-01-21T01:53:06.889Z,2.25
2024-01-21T01:55:37.363Z,2.30
2024-01-21T01:58:07.871Z,2.20
2024-01-21T02:00:38.881Z,2.00
2024-01-21T02:03:09.210Z,1.77
2024-01-21T02:05:39.305Z,1.83
2024-01-21T02:08:09.695Z,1.60
2024-01-21T02:10:39.792Z,2.28
2024-01-21T02:13:10.151Z,2.10
2024-01-21T02:15:41.086Z,2.20
2024-01-21T02:18:12.657Z,1.98
2024-01-21T02:20:42.785Z,2.47
2024-01-21T02:23:13.081Z,2.42
2024-01-21T02:25:42.899Z,2.00
2024-01-21T02:28:14.846Z,1.95
2024-01-21T02:30:44.974Z,2.72
2024-01-21T02:33:15.556Z,2.65
2024-01-21T02:35:45.643Z,2.58
2024-01-21T02:38:15.879Z,2.22
2024-01-21T02:40:46.099Z,2.47
2024-01-21T02:43:16.336Z,2.85
2024-01-21T02:45:46.200Z,2.50
2024-01-21T02:48:16.539Z,2.30
2024-01-21T02:50:46.647Z,3.00
2024-01-21T02:53:16.874Z,2.45
2024-01-21T02:55:46.843Z,2.58
2024-01-21T02:58:17.148Z,2.72
2024-01-21T03:00:47.237Z,2.60
2024-01-21T03:03:17.534Z,2.10
2024-01-21T03:05:47.603Z,2.08
2024-01-21T03:08:17.840Z,2.97
2024-01-21T03:10:47.826Z,2.92
2024-01-21T03:13:18.493Z,2.80
2024-01-21T03:15:48.976Z,3.70
2024-01-21T03:18:19.300Z,3.28
2024-01-21T03:20:49.862Z,3.72
2024-01-21T03:23:21.219Z,3.85
2024-01-21T03:25:51.282Z,4.10
2024-01-21T03:28:21.576Z,3.25
2024-01-21T03:30:51.919Z,3.50
2024-01-21T03:33:22.276Z,3.60
2024-01-21T03:35:52.241Z,3.63
2024-01-21T03:38:23.032Z,3.25
2024-01-21T03:40:53.201Z,3.47
2024-01-21T03:43:23.702Z,3.90
2024-01-21T03:45:53.695Z,4.32
2024-01-21T03:48:24.220Z,4.68
2024-01-21T03:50:54.261Z,4.95
2024-01-21T03:53:24.463Z,4.50
2024-01-21T03:55:54.249Z,5.28
2024-01-21T03:58:24.518Z,4.30
2024-01-21T04:00:54.527Z,5.28
2024-01-21T04:03:26.496Z,4.50
2024-01-21T04:06:00.541Z,5.55
2024-01-21T04:08:30.761Z,4.63
2024-01-21T04:11:00.833Z,5.20
2024-01-21T04:13:31.073Z,5.60
2024-01-21T04:16:01.848Z,5.38
2024-01-21T04:18:32.210Z,6.93
2024-01-21T04:21:04.121Z,5.88
2024-01-21T04:23:34.397Z,5.43
2024-01-21T04:26:06.472Z,5.60
2024-01-21T04:28:38.847Z,5.57
2024-01-21T04:31:09.117Z,6.35
2024-01-21T04:33:39.604Z,6.60
2024-01-21T04:36:11.039Z,5.35
2024-01-21T04:38:41.366Z,6.35
2024-01-21T04:41:11.214Z,7.00
2024-01-21T04:43:43.874Z,5.97
2024-01-21T04:46:14.013Z,5.97
2024-01-21T04:48:44.501Z,6.20
2024-01-21T04:51:15.391Z,6.28
2024-01-21T04:53:46.737Z,6.40
2024-01-21T04:56:20.662Z,5.90
2024-01-21T04:58:51.892Z,5.35
2024-01-21T05:01:25.946Z,5.32
2024-01-21T05:03:56.271Z,5.07
2024-01-21T05:06:26.351Z,6.30
2024-01-21T05:08:56.752Z,5.75
2024-01-21T05:11:26.540Z,5.50
2024-01-21T05:13:57.199Z,5.82
2024-01-21T05:16:30.829Z,5.57
2024-01-21T05:19:01.611Z,5.57
2024-01-21T05:21:31.656Z,5.50
2024-01-21T05:24:01.494Z,5.03
2024-01-21T05:26:32.004Z,5.38
2024-01-21T05:29:02.967Z,4.50
2024-01-21T05:31:35.713Z,5.30
2024-01-21T05:36:38.009Z,4.68
2024-01-21T05:39:08.746Z,4.45
2024-01-21T05:41:38.971Z,5.50
2024-01-21T05:44:09.374Z,5.38
2024-01-21T05:46:39.196Z,4.55
2024-01-21T05:49:09.724Z,5.00
2024-01-21T05:51:39.627Z,5.63
2024-01-21T05:54:09.709Z,5.10
2024-01-21T05:56:42.815Z,4.47
2024-01-21T05:59:15.304Z,4.60
2024-01-21T06:01:47.099Z,5.32
2024-01-21T06:04:17.161Z,4.68
2024-01-21T06:06:47.515Z,4.80
2024-01-21T06:09:19.945Z,4.18
2024-01-21T06:11:50.178Z,4.90
2024-01-21T06:14:20.166Z,4.75
2024-01-21T06:16:50.375Z,5.28
2024-01-21T06:19:20.666Z,5.20
2024-01-21T06:21:51.019Z,4.55
2024-01-21T06:24:21.103Z,4.72
2024-01-21T06:26:54.524Z,4.10
2024-01-21T06:29:24.539Z,4.40
2024-01-21T06:31:54.892Z,5.30
2024-01-21T06:34:24.990Z,4.88
2024-01-21T06:36:55.260Z,4.53
2024-01-21T06:39:25.324Z,4.45
2024-01-21T06:41:55.744Z,4.25
2024-01-21T06:44:25.732Z,3.92
2024-01-21T06:46:55.944Z,4.38
2024-01-21T06:49:26.042Z,4.78
2024-01-21T06:51:56.769Z,4.85
2024-01-21T06:54:26.818Z,4.63
2024-01-21T06:56:57.034Z,4.95
2024-01-21T06:59:27.123Z,4.80
2024-01-21T07:01:57.346Z,4.00
2024-01-21T07:04:27.444Z,3.80
2024-01-21T07:06:57.907Z,4.72
2024-01-21T07:09:27.966Z,5.22
2024-01-21T07:11:58.839Z,4.55
2024-01-21T07:14:36.038Z,5.28
2024-01-21T07:17:06.840Z,4.85
2024-01-21T07:19:37.176Z,5.20
2024-01-21T07:22:07.499Z,5.38
2024-01-21T07:24:37.940Z,4.75
2024-01-21T07:27:08.158Z,5.47
2024-01-21T07:29:38.170Z,4.22
2024-01-21T07:32:08.558Z,4.70
2024-01-21T07:34:38.794Z,4.82
2024-01-21T07:37:09.228Z,6.07
2024-01-21T07:39:39.303Z,5.38
2024-01-21T07:42:09.547Z,5.45
2024-01-21T07:44:39.506Z,6.05
2024-01-21T07:47:09.824Z,5.75
2024-01-21T07:49:40.006Z,5.45
2024-01-21T07:52:12.236Z,5.93
2024-01-21T07:54:42.229Z,5.68
2024-01-21T07:57:12.150Z,5.40
2024-01-21T07:59:42.604Z,6.43
2024-01-21T08:02:12.487Z,6.80
2024-01-21T08:04:42.945Z,6.70
2024-01-21T08:07:12.833Z,6.50
2024-01-21T08:09:43.270Z,6.80
2024-01-21T08:12:13.048Z,6.82
2024-01-21T08:14:43.431Z,6.88
2024-01-21T08:17:13.356Z,6.80
2024-01-21T08:19:44.711Z,5.15
2024-01-21T08:22:15.385Z,5.88
2024-01-21T08:24:45.847Z,6.97
2024-01-21T08:27:16.114Z,5.32
2024-01-21T08:29:46.738Z,5.32
2024-01-21T08:32:16.684Z,5.95
2024-01-21T08:34:47.365Z,5.45
2024-01-21T08:37:17.511Z,6.20
2024-01-21T08:39:49.810Z,6.32
2024-01-21T08:44:52.275Z,5.30
2024-01-21T08:47:22.095Z,6.43
2024-01-21T08:49:52.040Z,6.53
2024-01-21T08:52:22.385Z,5.80
2024-01-21T08:54:52.280Z,6.28
2024-01-21T08:57:23.271Z,6.38
2024-01-21T08:59:53.592Z,6.88
2024-01-21T09:02:24.375Z,6.68
2024-01-21T09:04:54.490Z,6.28
2024-01-21T09:07:24.788Z,5.95
2024-01-21T09:09:54.908Z,5.72
2024-01-21T09:12:25.686Z,6.28
2024-01-21T09:14:55.756Z,5.97
2024-01-21T09:17:25.991Z,6.57
2024-01-21T09:19:56.153Z,5.72
2024-01-21T09:22:26.659Z,5.65
2024-01-21T09:24:57.294Z,5.53
2024-01-21T09:27:27.641Z,5.60
2024-01-21T09:29:57.645Z,5.57
2024-01-21T09:32:30.430Z,4.93
2024-01-21T09:37:30.064Z,5.20
2024-01-21T09:40:00.578Z,4.68
2024-01-21T09:42:30.477Z,5.45
2024-01-21T09:45:02.477Z,5.60
2024-01-21T09:47:32.830Z,4.35
2024-01-21T09:50:03.427Z,3.45
2024-01-21T09:52:33.648Z,4.32
2024-01-21T09:55:03.860Z,4.20
2024-01-21T09:57:36.116Z,3.90
2024-01-21T10:00:08.531Z,4.53
2024-01-21T10:02:44.992Z,4.20
2024-01-21T10:05:15.505Z,3.72
2024-01-21T10:07:47.250Z,3.58
2024-01-21T10:10:17.646Z,4.38
2024-01-21T10:12:48.379Z,3.45
2024-01-21T10:15:19.118Z,4.00
2024-01-21T10:17:49.409Z,4.38
2024-01-21T10:20:20.891Z,4.60
2024-01-21T10:22:51.375Z,3.70
2024-01-21T10:25:23.564Z,2.88
2024-01-21T10:27:54.568Z,3.30
2024-01-21T10:30:24.808Z,3.28
2024-01-21T10:32:56.675Z,3.42
2024-01-21T10:35:27.510Z,3.55
2024-01-21T10:37:59.073Z,3.58
2024-01-21T10:40:29.023Z,3.53
2024-01-21T10:43:01.636Z,3.90
2024-01-21T10:48:03.963Z,3.40
2024-01-21T10:50:34.352Z,3.60
2024-01-21T10:53:04.880Z,3.47
2024-01-21T10:55:37.155Z,3.78
2024-01-21T10:58:08.588Z,3.60
2024-01-21T11:00:40.604Z,3.13
2024-01-21T11:03:39.850Z,3.30
2024-01-21T11:06:12.596Z,4.10
2024-01-21T11:08:46.165Z,3.50
2024-01-21T11:11:18.929Z,3.92
2024-01-21T11:13:53.773Z,3.67
2024-01-21T11:16:32.770Z,3.45
2024-01-21T11:19:12.253Z,3.67
2024-01-21T11:21:46.272Z,3.40
2024-01-21T11:24:17.614Z,3.33
2024-01-21T11:26:50.242Z,3.58
2024-01-21T11:32:00.489Z,3.10
2024-01-21T11:34:41.107Z,3.40
2024-01-21T11:37:18.465Z,3.60
2024-01-21T11:39:48.770Z,2.97
2024-01-21T11:42:24.497Z,3.08
2024-01-21T11:45:07.378Z,3.30
2024-01-21T11:47:37.988Z,3.90
2024-01-21T11:50:08.382Z,3.42
2024-01-21T11:52:40.834Z,4.03
2024-01-21T11:55:11.074Z,3.22
2024-01-21T11:57:41.751Z,3.97
2024-01-21T12:00:12.176Z,4.00
2024-01-21T12:02:42.319Z,3.83
2024-01-21T12:05:12.224Z,4.20
2024-01-21T12:07:42.964Z,3.50
2024-01-21T12:10:13.040Z,3.53
2024-01-21T12:12:44.070Z,3.40
2024-01-21T12:15:14.002Z,3.40
2024-01-21T12:17:44.068Z,3.40
2024-01-21T12:20:16.506Z,4.30
2024-01-21T12:22:48.151Z,3.70
2024-01-21T12:25:20.283Z,3.60
2024-01-21T12:27:58.859Z,3.30
2024-01-21T12:30:29.241Z,2.75
2024-01-21T12:33:00.003Z,3.25
2024-01-21T12:35:30.406Z,3.03
2024-01-21T12:38:04.226Z,3.25
2024-01-21T12:40:34.432Z,3.67
2024-01-21T12:43:04.421Z,3.75
2024-01-21T12:45:36.209Z,3.05
2024-01-21T12:48:07.095Z,3.60
2024-01-21T12:50:37.562Z,2.70
2024-01-21T12:53:07.540Z,3.00
2024-01-21T12:55:40.645Z,3.13
2024-01-21T12:58:14.608Z,3.15
2024-01-21T13:00:45.054Z,3.45
2024-01-21T13:03:15.616Z,3.15
2024-01-21T13:05:47.222Z,2.90
2024-01-21T13:08:19.955Z,3.40
2024-01-21T13:10:50.162Z,3.00
2024-01-21T13:13:20.174Z,3.33
2024-01-21T13:15:50.603Z,3.33
2024-01-21T13:18:20.803Z,3.20
2024-01-21T13:20:51.418Z,3.47
2024-01-21T13:23:21.833Z,3.53
2024-01-21T13:25:52.217Z,3.28
2024-01-21T13:28:24.799Z,3.30
2024-01-21T13:30:57.613Z,3.28
2024-01-21T13:33:31.900Z,3.60
2024-01-21T13:36:02.720Z,3.17
2024-01-21T13:38:35.071Z,3.10
2024-01-21T13:41:06.019Z,3.42
2024-01-21T13:43:37.759Z,3.10
2024-01-21T13:46:10.089Z,3.47
2024-01-21T13:48:40.290Z,3.25
2024-01-21T13:51:12.255Z,3.03
2024-01-21T13:53:43.666Z,2.50
2024-01-21T13:56:14.442Z,3.08
2024-01-21T13:58:44.479Z,3.30
2024-01-21T14:01:14.849Z,3.33
2024-01-21T14:03:45.316Z,3.17
2024-01-21T14:06:15.764Z,2.47
2024-01-21T14:08:45.774Z,2.95
2024-01-21T14:11:16.028Z,2.63
2024-01-21T14:13:46.381Z,2.85
2024-01-21T14:16:16.615Z,2.83
2024-01-21T14:18:48.711Z,3.60
2024-01-21T14:21:19.062Z,2.72
2024-01-21T14:23:52.205Z,2.38
2024-01-21T14:26:25.189Z,3.20
2024-01-21T14:28:57.136Z,2.70
2024-01-21T14:31:28.646Z,2.60
2024-01-21T14:34:00.193Z,2.58
2024-01-21T14:36:32.761Z,3.05
2024-01-21T14:39:02.788Z,2.42
2024-01-21T14:41:33.052Z,2.95
2024-01-21T14:44:03.371Z,2.88
2024-01-21T14:46:33.915Z,3.00
2024-01-21T14:49:04.317Z,2.20
2024-01-21T14:51:34.813Z,2.28
2024-01-21T14:54:05.391Z,1.95
2024-01-21T14:56:35.860Z,3.75
2024-01-21T14:59:06.212Z,2.53
2024-01-21T15:01:36.525Z,3.00
2024-01-21T15:04:06.608Z,2.47
2024-01-21T15:06:37.254Z,2.75
2024-01-21T15:09:09.708Z,2.72
2024-01-21T15:11:41.550Z,2.67
2024-01-21T15:14:28.218Z,2.72
2024-01-21T15:16:58.499Z,3.13
2024-01-21T15:19:28.387Z,2.60
2024-01-21T15:21:58.737Z,3.03
2024-01-21T15:24:29.325Z,2.58
2024-01-21T15:27:01.326Z,2.40
2024-01-21T15:29:31.312Z,3.10
2024-01-21T15:32:01.690Z,2.70
2024-01-21T15:34:32.112Z,3.67
2024-01-21T15:37:02.928Z,3.28
2024-01-21T15:39:32.923Z,3.08
2024-01-21T15:42:04.182Z,2.28
2024-01-21T15:44:34.218Z,2.58
2024-01-21T15:47:04.723Z,2.97
2024-01-21T15:49:35.369Z,2.72
2024-01-21T15:52:06.037Z,2.63
2024-01-21T15:54:36.842Z,3.30
2024-01-21T15:57:10.099Z,4.43
2024-01-21T15:59:40.053Z,3.13
2024-01-21T16:02:10.273Z,2.80
2024-01-21T16:04:40.250Z,2.38
2024-01-21T16:07:11.388Z,2.78
2024-01-21T16:09:41.435Z,3.67
2024-01-21T16:12:15.375Z,3.42
2024-01-21T16:14:45.976Z,2.83
2024-01-21T16:17:16.697Z,3.05
2024-01-21T16:19:50.843Z,2.72
2024-01-21T16:22:22.068Z,2.88
2024-01-21T16:24:52.369Z,3.10
2024-01-21T16:27:29.834Z,2.75
2024-01-21T16:30:03.239Z,3.67
2024-01-21T16:32:33.683Z,3.30
2024-01-21T16:35:04.073Z,3.17
2024-01-21T16:37:34.410Z,3.05
2024-01-21T16:40:04.467Z,2.50
2024-01-21T16:42:34.766Z,2.35
2024-01-21T16:45:06.081Z,2.47
2024-01-21T16:47:36.755Z,2.85
2024-01-21T16:50:07.134Z,3.50
2024-01-21T16:52:42.108Z,2.30
2024-01-21T16:55:12.164Z,3.08
2024-01-21T16:57:42.611Z,3.72
2024-01-21T17:00:46.928Z,2.97
2024-01-21T17:03:18.209Z,2.45
2024-01-21T17:05:48.339Z,3.08
2024-01-21T17:08:18.647Z,2.78
2024-01-21T17:11:00.782Z,3.10
2024-01-21T17:13:31.299Z,3.08
2024-01-21T17:16:01.349Z,3.10
2024-01-21T17:18:45.180Z,2.25
2024-01-21T17:21:15.226Z,2.63
2024-01-21T17:23:48.235Z,2.50
2024-01-21T17:26:21.366Z,2.90
2024-01-21T17:28:52.078Z,3.25
2024-01-21T17:31:22.080Z,2.38
2024-01-21T17:33:53.872Z,2.92
2024-01-21T17:36:28.871Z,2.45
2024-01-21T17:39:03.322Z,2.75
2024-01-21T17:41:34.613Z,2.92
2024-01-21T17:44:07.957Z,2.65
2024-01-21T17:46:38.065Z,2.45
2024-01-21T17:49:08.468Z,2.65
2024-01-21T17:51:38.526Z,2.80
2024-01-21T17:54:08.775Z,2.90
2024-01-21T17:56:38.614Z,2.40
2024-01-21T17:59:08.973Z,1.83
2024-01-21T18:01:39.173Z,2.72
2024-01-21T18:04:09.556Z,2.17
2024-01-21T18:06:40.011Z,2.90
2024-01-21T18:09:12.311Z,2.58
2024-01-21T18:14:12.299Z,2.38
2024-01-21T18:16:42.374Z,2.63
2024-01-21T18:19:12.655Z,2.88
2024-01-21T18:21:47.621Z,3.33
2024-01-21T18:24:17.887Z,2.97
2024-01-21T18:26:48.051Z,2.70
2024-01-21T18:29:26.392Z,2.72
2024-01-21T18:32:06.813Z,1.98
2024-01-21T18:34:40.169Z,2.13
2024-01-21T18:37:10.338Z,2.38
2024-01-21T18:39:41.099Z,2.72
2024-01-21T18:42:11.874Z,2.40
2024-01-21T18:44:42.219Z,2.42
2024-01-21T18:47:12.288Z,2.60
2024-01-21T18:49:42.506Z,2.72
2024-01-21T18:52:14.260Z,2.63
2024-01-21T18:54:44.822Z,3.03
2024-01-21T18:57:16.172Z,2.60
2024-01-21T18:59:51.185Z,3.13
2024-01-21T19:02:32.928Z,2.35
2024-01-21T19:05:04.823Z,2.30
2024-01-21T19:07:42.532Z,2.75
2024-01-21T19:10:19.201Z,2.80
2024-01-21T19:12:51.111Z,2.88
2024-01-21T19:15:21.644Z,3.15
2024-01-21T19:17:53.394Z,2.53
2024-01-21T19:20:34.992Z,2.83
2024-01-21T19:23:06.294Z,2.67
2024-01-21T19:25:38.625Z,3.03
2024-01-21T19:28:11.598Z,2.53
2024-01-21T19:30:42.328Z,3.30
2024-01-21T19:33:12.698Z,2.40
2024-01-21T19:35:43.398Z,2.80
2024-01-21T19:38:15.052Z,2.85
2024-01-21T19:43:16.175Z,2.97
2024-01-21T19:45:46.827Z,2.63
2024-01-21T19:48:19.052Z,3.50
2024-01-21T19:50:49.416Z,3.28
2024-01-21T19:53:19.758Z,3.40
2024-01-21T19:55:51.056Z,2.67
2024-01-21T19:58:21.334Z,3.00
2024-01-21T20:00:51.734Z,3.03
2024-01-21T20:03:22.869Z,2.88
2024-01-21T20:06:00.848Z,3.95
2024-01-21T20:08:31.299Z,2.80
2024-01-21T20:11:06.413Z,3.17
2024-01-21T20:13:36.600Z,3.03
2024-01-21T20:16:08.397Z,2.15
2024-01-21T20:18:40.689Z,2.78
2024-01-21T20:21:11.457Z,3.08
2024-01-21T20:23:41.954Z,2.55
2024-01-21T20:26:12.743Z,2.17
2024-01-21T20:28:55.020Z,3.17
2024-01-21T20:31:29.272Z,3.10
2024-01-21T20:34:12.194Z,3.05
2024-01-21T20:37:05.966Z,2.33
2024-01-21T20:39:36.365Z,3.25
2024-01-21T20:42:11.815Z,3.35
2024-01-21T20:44:43.796Z,2.40
2024-01-21T20:47:15.966Z,3.28
2024-01-21T20:49:49.474Z,3.45
2024-01-21T20:52:20.011Z,2.92
2024-01-21T20:54:50.072Z,2.88
2024-01-21T20:57:20.476Z,2.58
2024-01-21T20:59:50.398Z,2.33
2024-01-21T21:02:20.855Z,3.42
2024-01-21T21:04:51.054Z,2.85
2024-01-21T21:07:21.461Z,3.08
2024-01-21T21:09:51.529Z,2.40
2024-01-21T21:12:21.924Z,3.05
2024-01-21T21:14:53.404Z,2.63
2024-01-21T21:17:23.817Z,2.80
2024-01-21T21:19:53.891Z,2.65
2024-01-21T21:22:25.823Z,3.05
2024-01-21T21:25:00.405Z,2.17
2024-01-21T21:27:30.901Z,2.67
2024-01-21T21:30:01.190Z,2.72
2024-01-21T21:32:31.660Z,3.15
2024-01-21T21:35:01.790Z,3.60
2024-01-21T21:37:32.108Z,2.97
2024-01-21T21:40:02.165Z,3.10
2024-01-21T21:42:34.034Z,2.60
2024-01-21T21:45:06.377Z,2.75
2024-01-21T21:47:36.779Z,3.08
2024-01-21T21:50:07.675Z,2.78
2024-01-21T21:52:38.059Z,3.55
2024-01-21T21:55:08.520Z,3.15
2024-01-21T21:57:38.904Z,2.72
2024-01-21T22:00:15.364Z,2.92
2024-01-21T22:02:47.276Z,2.17
2024-01-21T22:05:22.567Z,3.00
2024-01-21T22:07:53.099Z,3.20
2024-01-21T22:10:23.920Z,3.35
2024-01-21T22:12:54.756Z,3.40
2024-01-21T22:15:24.878Z,2.83
2024-01-21T22:17:55.587Z,3.45
2024-01-21T22:20:25.813Z,3.10
2024-01-21T22:22:58.687Z,2.80
2024-01-21T22:25:28.823Z,2.88
2024-01-21T22:27:58.584Z,2.78
2024-01-21T22:30:29.251Z,2.17
2024-01-21T22:32:59.681Z,2.67
2024-01-21T22:35:30.416Z,3.53
2024-01-21T22:38:00.565Z,3.20
2024-01-21T22:40:31.218Z,2.95
2024-01-21T22:43:01.301Z,3.42
2024-01-21T22:45:31.760Z,3.67
2024-01-21T22:48:02.179Z,2.90
2024-01-21T22:50:32.856Z,3.22
2024-01-21T22:53:03.258Z,2.97
2024-01-21T22:55:33.772Z,2.90
2024-01-21T22:58:04.577Z,3.28
2024-01-21T23:00:35.202Z,2.47
2024-01-21T23:03:05.478Z,2.38
2024-01-21T23:05:36.084Z,2.67
2024-01-21T23:08:06.760Z,2.55
2024-01-21T23:10:37.419Z,2.80
2024-01-21T23:13:08.752Z,2.70
2024-01-21T23:15:39.263Z,2.47
2024-01-21T23:18:09.757Z,2.58
2024-01-21T23:20:40.682Z,2.90
2024-01-21T23:23:10.673Z,3.33
2024-01-21T23:25:44.088Z,3.45
2024-01-21T23:28:14.501Z,3.45
2024-01-21T23:30:48.700Z,2.60
2024-01-21T23:33:19.511Z,3.53
2024-01-21T23:35:50.424Z,3.53
2024-01-21T23:40:53.128Z,3.10
2024-01-21T23:43:23.480Z,3.20
2024-01-21T23:45:53.645Z,2.83
2024-01-21T23:48:24.092Z,3.08
2024-01-21T23:50:54.284Z,3.05
2024-01-21T23:53:24.855Z,3.45
2024-01-21T23:55:56.387Z,3.47
2024-01-21T23:58:26.777Z,3.25
